Time;durP1;ratioP1;P1;durP2;ratioP2;P2;SDS_P1;SDS_P2;PMS_P1;PMS_P2;Temp;Humidity;BMP_temperature;BMP_pressure;BME280_temperature;BME280_humidity;BME280_pressure;Samples;Min_cycle;Max_cycle;Signal;HPM_P1;HPM_P2
2021/07/05 00:01:38;;;;;;;12.52;7.55;;;18.60;99.90;;;;;;5113790;27;20228;-71
2021/07/05 00:04:05;;;;;;;13.88;8.10;;;18.60;99.90;;;;;;5087913;27;20314;-69
2021/07/05 00:06:32;;;;;;;12.88;7.60;;;18.60;99.90;;;;;;5076387;28;20283;-68
2021/07/05 00:09:00;;;;;;;13.25;7.60;;;18.70;99.90;;;;;;5072564;28;20205;-70
2021/07/05 00:11:27;;;;;;;10.10;6.97;;;18.70;99.90;;;;;;5072089;28;20324;-70
2021/07/05 00:13:53;;;;;;;12.88;7.55;;;18.70;99.90;;;;;;5072792;28;20210;-70
2021/07/05 00:16:20;;;;;;;11.20;7.95;;;18.70;99.90;;;;;;5073168;28;20846;-69
2021/07/05 00:18:47;;;;;;;12.73;8.32;;;18.70;99.90;;;;;;5087324;28;20580;-70
2021/07/05 00:21:14;;;;;;;13.35;9.15;;;18.80;99.90;;;;;;5073895;28;20202;-70
2021/07/05 00:23:41;;;;;;;16.05;10.07;;;18.80;99.90;;;;;;5072870;28;20221;-68
2021/07/05 00:26:09;;;;;;;17.08;11.10;;;18.70;99.90;;;;;;5072859;28;20336;-70
2021/07/05 00:28:36;;;;;;;19.73;10.88;;;18.70;99.90;;;;;;5071797;28;20556;-70
2021/07/05 00:31:03;;;;;;;18.23;10.35;;;18.70;99.90;;;;;;5073262;28;20233;-70
2021/07/05 00:33:30;;;;;;;16.33;10.35;;;18.70;99.90;;;;;;5072381;28;20262;-71
2021/07/05 00:35:57;;;;;;;15.45;10.30;;;18.60;99.90;;;;;;5072625;28;20229;-70
2021/07/05 00:38:24;;;;;;;19.33;10.80;;;18.60;99.90;;;;;;5074398;28;20206;-70
2021/07/05 00:40:50;;;;;;;17.08;10.35;;;18.60;99.90;;;;;;5073309;28;20225;-71
2021/07/05 00:43:19;;;;;;;17.95;10.82;;;18.60;99.90;;;;;;5070748;28;20612;-70
2021/07/05 00:45:45;;;;;;;15.70;10.82;;;18.60;99.90;;;;;;5072651;28;20252;-70
2021/07/05 00:48:13;;;;;;;16.23;11.07;;;18.60;99.90;;;;;;5072670;28;20286;-70
2021/07/05 00:50:39;;;;;;;15.93;10.45;;;18.60;99.90;;;;;;5073025;28;20197;-69
2021/07/05 00:53:06;;;;;;;18.17;11.27;;;18.60;99.90;;;;;;5073025;28;20203;-70
2021/07/05 00:55:33;;;;;;;21.80;11.63;;;18.60;99.90;;;;;;5072777;28;20218;-70
2021/07/05 00:58:00;;;;;;;20.50;10.73;;;18.60;99.90;;;;;;5070797;28;20201;-70
2021/07/05 01:00:29;;;;;;;16.60;10.50;;;18.60;99.90;;;;;;5074821;28;20279;-69
2021/07/05 01:02:57;;;;;;;18.08;10.75;;;18.60;99.90;;;;;;5077472;27;20268;-70
2021/07/05 01:05:24;;;;;;;16.75;10.07;;;18.60;99.90;;;;;;5091174;27;20212;-70
2021/07/05 01:07:52;;;;;;;15.85;9.63;;;18.60;99.90;;;;;;5094555;27;20223;-71
2021/07/05 01:10:20;;;;;;;16.10;9.18;;;18.60;99.90;;;;;;5112332;27;20203;-71
2021/07/05 01:12:48;;;;;;;18.35;8.20;;;18.60;99.90;;;;;;5113066;27;20200;-69
2021/07/05 01:15:17;;;;;;;13.40;8.55;;;18.60;99.90;;;;;;5111943;27;20209;-68
2021/07/05 01:17:46;;;;;;;16.67;7.75;;;18.50;99.90;;;;;;5112731;27;20201;-69
2021/07/05 01:20:19;;;;;;;11.82;7.38;;;18.50;99.90;;;;;;5111136;27;20204;-70
2021/07/05 01:22:47;;;;;;;11.77;7.03;;;18.50;99.90;;;;;;5111972;27;20290;-70
2021/07/05 01:25:16;;;;;;;13.60;6.20;;;18.50;99.90;;;;;;5111886;27;20209;-69
2021/07/05 01:27:45;;;;;;;14.98;5.70;;;18.50;99.90;;;;;;5112713;27;20732;-69
2021/07/05 01:30:13;;;;;;;11.88;5.22;;;18.50;99.90;;;;;;5112700;27;20241;-69
2021/07/05 01:32:40;;;;;;;10.90;4.60;;;18.50;99.90;;;;;;5111793;27;20205;-70
2021/07/05 01:35:08;;;;;;;13.27;4.82;;;18.50;99.90;;;;;;5112141;27;20244;-69
2021/07/05 01:37:35;;;;;;;9.98;4.70;;;18.50;99.90;;;;;;5112718;27;20298;-71
2021/07/05 01:40:05;;;;;;;12.00;4.30;;;18.40;99.90;;;;;;5111739;27;20208;-69
2021/07/05 01:42:32;;;;;;;6.05;3.80;;;18.50;99.90;;;;;;5113379;27;20211;-69
2021/07/05 01:44:59;;;;;;;12.45;4.20;;;18.50;99.90;;;;;;5088896;27;20204;-69
2021/07/05 01:47:26;;;;;;;12.32;3.50;;;18.50;99.90;;;;;;5111392;27;20299;-69
2021/07/05 01:49:53;;;;;;;11.15;3.33;;;18.40;99.90;;;;;;5092493;27;20636;-70
2021/07/05 01:52:20;;;;;;;8.35;3.28;;;18.40;99.90;;;;;;5114645;27;22278;-71
2021/07/05 01:54:47;;;;;;;18.27;3.88;;;18.30;99.90;;;;;;5112165;27;20726;-70
2021/07/05 01:57:25;;;;;;;9.57;3.80;;;18.30;99.90;;;;;;5110778;27;20532;-71
2021/07/05 01:59:53;;;;;;;10.75;3.38;;;18.30;99.90;;;;;;5112797;27;20223;-70
2021/07/05 02:02:20;;;;;;;16.25;4.00;;;18.20;99.90;;;;;;5112626;27;20204;-70
2021/07/05 02:04:47;;;;;;;10.70;3.60;;;18.20;99.90;;;;;;5112463;27;20300;-70
2021/07/05 02:07:14;;;;;;;9.85;3.63;;;18.20;99.90;;;;;;5112365;27;20229;-70
2021/07/05 02:09:42;;;;;;;12.70;3.83;;;18.20;99.90;;;;;;5112246;27;20684;-69
2021/07/05 02:12:09;;;;;;;12.75;4.00;;;18.20;99.90;;;;;;5111399;27;20292;-71
2021/07/05 02:14:37;;;;;;;12.40;4.30;;;18.20;99.90;;;;;;5110944;27;20200;-69
2021/07/05 02:17:05;;;;;;;14.05;3.65;;;18.20;99.90;;;;;;5111278;27;20212;-70
2021/07/05 02:19:31;;;;;;;16.05;3.67;;;18.10;99.90;;;;;;5111121;27;20582;-69
2021/07/05 02:21:58;;;;;;;14.82;4.00;;;18.10;99.90;;;;;;5111253;27;20212;-69
2021/07/05 02:24:25;;;;;;;16.23;4.10;;;18.10;99.90;;;;;;5111108;27;20705;-69
2021/07/05 02:26:53;;;;;;;15.18;4.20;;;18.10;99.90;;;;;;5110894;27;20224;-71
2021/07/05 02:29:20;;;;;;;20.05;4.13;;;18.10;99.90;;;;;;5110436;27;20226;-68
2021/07/05 02:31:48;;;;;;;15.32;4.28;;;18.10;99.90;;;;;;5112934;27;20205;-70
2021/07/05 02:34:15;;;;;;;16.83;4.10;;;18.10;99.90;;;;;;5112452;27;20205;-70
2021/07/05 02:36:42;;;;;;;12.90;4.28;;;18.10;99.90;;;;;;5112336;27;20232;-69
2021/07/05 02:39:10;;;;;;;24.92;4.20;;;18.10;99.90;;;;;;5109946;27;20204;-69
2021/07/05 02:41:37;;;;;;;19.83;4.28;;;18.10;99.90;;;;;;5111210;27;20289;-70
2021/07/05 02:44:04;;;;;;;13.40;4.15;;;18.10;99.90;;;;;;5112133;27;20249;-70
2021/07/05 02:46:31;;;;;;;13.82;4.35;;;18.00;99.90;;;;;;5111647;27;20699;-71
2021/07/05 02:48:59;;;;;;;15.73;4.63;;;18.00;99.90;;;;;;5093608;27;20208;-70
2021/07/05 02:51:26;;;;;;;17.63;4.32;;;18.00;99.90;;;;;;5110869;27;20204;-69
2021/07/05 02:53:53;;;;;;;22.88;5.25;;;18.00;99.90;;;;;;5112275;27;20200;-69
2021/07/05 02:56:20;;;;;;;18.33;4.80;;;18.00;99.90;;;;;;5110291;27;20208;-70
2021/07/05 02:58:46;;;;;;;18.40;4.90;;;17.90;99.90;;;;;;5109786;27;20201;-68
2021/07/05 03:01:13;;;;;;;17.83;4.82;;;17.90;99.90;;;;;;5112217;27;20682;-66
2021/07/05 03:03:40;;;;;;;19.38;4.75;;;17.90;99.90;;;;;;5084354;28;20751;-68
2021/07/05 03:06:08;;;;;;;22.63;4.68;;;17.90;99.90;;;;;;5115547;27;20228;-68
2021/07/05 03:08:35;;;;;;;17.98;4.85;;;17.90;99.90;;;;;;5112247;27;22136;-68
2021/07/05 03:11:02;;;;;;;27.35;5.45;;;17.90;99.90;;;;;;5114766;27;20657;-67
2021/07/05 03:13:29;;;;;;;20.48;5.50;;;17.90;99.90;;;;;;5115151;27;21909;-68
2021/07/05 03:15:56;;;;;;;20.58;5.20;;;17.90;99.90;;;;;;5089628;27;20704;-66
2021/07/05 03:18:23;;;;;;;15.10;5.18;;;17.90;99.90;;;;;;5114499;27;20211;-67
2021/07/05 03:20:51;;;;;;;18.48;5.05;;;17.90;99.90;;;;;;5115936;27;20231;-67
2021/07/05 03:23:22;;;;;;;20.85;5.10;;;17.90;99.90;;;;;;5114403;27;20212;-68
2021/07/05 03:25:49;;;;;;;19.30;5.20;;;17.90;99.90;;;;;;5118398;27;20205;-68
2021/07/05 03:28:17;;;;;;;25.88;5.53;;;17.90;99.90;;;;;;5114764;27;20252;-68
2021/07/05 03:30:46;;;;;;;18.58;5.03;;;17.80;99.90;;;;;;5115905;27;20728;-68
2021/07/05 03:33:12;;;;;;;19.67;5.97;;;17.80;99.90;;;;;;5114950;27;20257;-67
2021/07/05 03:35:40;;;;;;;21.02;4.82;;;17.80;99.90;;;;;;5095672;27;20219;-68
2021/07/05 03:38:08;;;;;;;16.85;4.90;;;17.80;99.90;;;;;;5113795;27;20242;-68
2021/07/05 03:40:38;;;;;;;19.35;5.57;;;17.80;99.90;;;;;;5115023;27;20708;-69
2021/07/05 03:43:06;;;;;;;20.48;5.00;;;17.80;99.90;;;;;;5114711;27;20656;-68
2021/07/05 03:45:37;;;;;;;16.05;4.90;;;17.80;99.90;;;;;;5114437;27;20200;-69
2021/07/05 03:48:05;;;;;;;17.20;5.68;;;17.80;99.90;;;;;;5113539;27;20223;-69
2021/07/05 03:50:33;;;;;;;17.20;5.35;;;17.80;99.90;;;;;;5114366;27;20264;-67
2021/07/05 03:52:59;;;;;;;15.60;4.68;;;17.80;99.90;;;;;;5113861;27;20220;-69
2021/07/05 03:55:29;;;;;;;15.52;5.60;;;17.80;99.90;;;;;;5113057;27;20657;-68
2021/07/05 03:57:58;;;;;;;14.25;4.95;;;17.80;99.90;;;;;;5113863;27;20201;-70
2021/07/05 04:00:27;;;;;;;16.08;5.57;;;17.70;99.90;;;;;;5094252;27;21260;-69
2021/07/05 04:02:54;;;;;;;17.90;5.80;;;17.70;99.90;;;;;;5113742;27;20207;-69
2021/07/05 04:05:21;;;;;;;17.25;5.65;;;17.70;99.90;;;;;;5117420;27;20212;-68
2021/07/05 04:07:48;;;;;;;21.63;6.00;;;17.70;99.90;;;;;;5112999;27;20219;-68
2021/07/05 04:10:16;;;;;;;14.73;5.75;;;17.70;99.90;;;;;;5112064;27;20196;-70
2021/07/05 04:12:44;;;;;;;18.45;6.47;;;17.70;99.90;;;;;;5115018;27;20546;-69
2021/07/05 04:15:13;;;;;;;18.00;6.38;;;17.70;99.90;;;;;;5112213;27;20280;-67
2021/07/05 04:17:40;;;;;;;18.33;7.30;;;17.70;99.90;;;;;;5114974;27;22888;-68
2021/07/05 04:20:10;;;;;;;23.58;7.82;;;17.70;99.90;;;;;;5111716;27;21503;-67
2021/07/05 04:22:37;;;;;;;13.90;6.10;;;17.60;99.90;;;;;;5091164;27;20462;-69
2021/07/05 04:25:05;;;;;;;19.30;7.00;;;17.70;99.90;;;;;;5115400;27;20204;-69
2021/07/05 04:27:32;;;;;;;20.10;6.70;;;17.60;99.90;;;;;;5088381;27;20731;-69
2021/07/05 04:29:59;;;;;;;19.13;7.45;;;17.60;99.90;;;;;;5114491;27;21043;-68
2021/07/05 04:32:27;;;;;;;16.33;7.40;;;17.60;99.90;;;;;;5113310;27;20810;-68
2021/07/05 04:34:54;;;;;;;16.73;7.63;;;17.60;99.90;;;;;;5112256;27;20201;-70
2021/07/05 04:37:21;;;;;;;22.67;7.40;;;17.60;99.90;;;;;;5116416;27;20193;-68
2021/07/05 04:39:48;;;;;;;18.80;6.70;;;17.60;99.90;;;;;;5085754;27;20296;-70
2021/07/05 04:42:15;;;;;;;17.83;6.63;;;17.60;99.90;;;;;;5113520;27;20218;-66
2021/07/05 04:44:42;;;;;;;18.42;7.03;;;17.60;99.90;;;;;;5112942;27;20201;-68
2021/07/05 04:47:11;;;;;;;15.02;6.35;;;17.60;99.90;;;;;;5113845;27;20212;-70
2021/07/05 04:49:39;;;;;;;19.42;6.85;;;17.60;99.90;;;;;;5112697;27;20304;-68
2021/07/05 04:52:06;;;;;;;22.92;7.18;;;17.60;99.90;;;;;;5112979;27;20235;-67
2021/07/05 04:54:32;;;;;;;19.65;6.38;;;17.60;99.90;;;;;;5111488;27;20209;-68
2021/07/05 04:56:59;;;;;;;22.13;6.63;;;17.60;99.90;;;;;;5112809;27;20249;-67
2021/07/05 04:59:27;;;;;;;16.33;6.60;;;17.70;99.90;;;;;;5112905;27;20212;-66
2021/07/05 05:01:53;;;;;;;16.00;6.45;;;17.70;99.90;;;;;;5110330;27;20201;-68
2021/07/05 05:04:20;;;;;;;17.23;6.93;;;17.70;99.90;;;;;;5087672;27;20297;-67
2021/07/05 05:06:48;;;;;;;19.10;6.47;;;17.70;99.90;;;;;;5116779;27;20189;-69
2021/07/05 05:09:17;;;;;;;18.35;6.50;;;17.70;99.90;;;;;;5113674;27;20301;-69
2021/07/05 05:11:44;;;;;;;18.48;6.93;;;17.70;99.90;;;;;;5113057;27;20256;-69
2021/07/05 05:14:10;;;;;;;18.58;7.70;;;17.70;99.90;;;;;;5113269;27;20287;-70
2021/07/05 05:16:37;;;;;;;20.40;7.20;;;17.70;99.90;;;;;;5112777;27;20803;-68
2021/07/05 05:19:04;;;;;;;21.30;6.93;;;17.70;99.90;;;;;;5110248;27;20326;-69
2021/07/05 05:21:32;;;;;;;23.83;6.93;;;17.70;99.90;;;;;;5113257;27;20760;-69
2021/07/05 05:24:01;;;;;;;23.45;7.18;;;17.70;99.90;;;;;;5085539;27;20222;-69
2021/07/05 05:26:28;;;;;;;17.13;6.30;;;17.70;99.90;;;;;;5116038;27;20196;-68
2021/07/05 05:28:55;;;;;;;19.13;6.57;;;17.70;99.90;;;;;;5112839;27;20237;-66
2021/07/05 05:31:22;;;;;;;21.33;6.65;;;17.70;99.90;;;;;;5112629;27;20250;-66
2021/07/05 05:33:49;;;;;;;22.77;6.55;;;17.70;99.90;;;;;;5112071;27;20200;-68
2021/07/05 05:36:17;;;;;;;22.95;7.90;;;17.70;99.90;;;;;;5112731;27;20804;-71
2021/07/05 05:38:48;;;;;;;22.70;6.70;;;17.70;99.90;;;;;;5111067;27;20224;-69
2021/07/05 05:41:17;;;;;;;15.73;6.72;;;17.70;99.90;;;;;;5111909;27;20292;-66
2021/07/05 05:43:44;;;;;;;19.98;6.70;;;17.70;99.90;;;;;;5111502;27;20649;-68
2021/07/05 05:46:15;;;;;;;18.63;6.82;;;17.70;99.90;;;;;;5086262;27;20213;-68
2021/07/05 05:48:43;;;;;;;16.98;7.00;;;17.70;99.90;;;;;;5111888;27;20577;-68
2021/07/05 05:51:11;;;;;;;18.58;6.78;;;17.70;99.90;;;;;;5113603;27;20269;-70
2021/07/05 05:53:38;;;;;;;18.67;6.80;;;17.70;99.90;;;;;;5112030;27;20271;-68
2021/07/05 05:56:05;;;;;;;24.08;7.20;;;17.70;99.90;;;;;;5112846;27;20205;-68
2021/07/05 05:58:37;;;;;;;28.55;7.68;;;17.70;99.90;;;;;;5112260;27;20188;-68
2021/07/05 06:01:05;;;;;;;18.38;7.60;;;17.70;99.90;;;;;;5111146;27;20353;-67
2021/07/05 06:03:32;;;;;;;18.08;6.90;;;17.70;99.90;;;;;;5110802;27;20250;-70
2021/07/05 06:05:59;;;;;;;16.60;6.93;;;17.70;99.90;;;;;;5111326;27;20204;-70
2021/07/05 06:08:26;;;;;;;21.10;6.60;;;17.70;99.90;;;;;;5110996;27;20309;-65
2021/07/05 06:10:53;;;;;;;17.60;6.88;;;17.70;99.90;;;;;;5111890;27;20227;-66
2021/07/05 06:13:20;;;;;;;20.73;6.93;;;17.70;99.90;;;;;;5111193;27;20227;-65
2021/07/05 06:15:48;;;;;;;18.80;7.28;;;17.70;99.90;;;;;;5110565;27;20234;-68
2021/07/05 06:18:14;;;;;;;24.38;6.50;;;17.70;99.90;;;;;;5111112;27;20204;-66
2021/07/05 06:20:41;;;;;;;23.90;7.35;;;17.80;99.90;;;;;;5094274;27;20209;-67
2021/07/05 06:23:18;;;;;;;20.33;6.93;;;17.80;99.90;;;;;;5112540;27;20249;-69
2021/07/05 06:25:45;;;;;;;18.30;6.63;;;17.80;99.90;;;;;;5113957;27;20676;-66
2021/07/05 06:28:12;;;;;;;19.08;6.43;;;17.80;99.90;;;;;;5110428;27;20212;-68
2021/07/05 06:30:39;;;;;;;20.45;6.57;;;17.80;99.90;;;;;;5111545;27;21272;-70
2021/07/05 06:33:07;;;;;;;19.45;6.70;;;17.80;99.90;;;;;;5111191;27;20729;-71
2021/07/05 06:35:34;;;;;;;21.00;6.80;;;17.80;99.90;;;;;;5110506;27;20209;-68
2021/07/05 06:38:00;;;;;;;19.25;6.47;;;17.90;99.90;;;;;;5112558;27;20672;-66
2021/07/05 06:40:28;;;;;;;11.73;6.18;;;17.90;99.90;;;;;;5093484;28;20230;-67
2021/07/05 06:42:54;;;;;;;18.55;7.00;;;17.90;99.90;;;;;;5110775;27;20210;-67
2021/07/05 06:45:22;;;;;;;18.48;6.53;;;17.90;99.90;;;;;;5114805;27;20675;-65
2021/07/05 06:47:49;;;;;;;20.38;6.47;;;17.90;99.90;;;;;;5116402;27;20231;-67
2021/07/05 06:50:17;;;;;;;17.08;6.85;;;17.90;99.90;;;;;;5115963;27;20203;-67
2021/07/05 06:52:44;;;;;;;20.05;6.80;;;17.90;99.90;;;;;;5116310;27;20731;-69
2021/07/05 06:55:12;;;;;;;18.65;6.97;;;17.90;99.90;;;;;;5116597;27;20287;-69
2021/07/05 06:57:40;;;;;;;23.02;7.00;;;17.90;99.90;;;;;;5114912;27;20241;-68
2021/07/05 07:00:09;;;;;;;20.77;6.95;;;17.90;99.90;;;;;;5116061;27;20204;-67
2021/07/05 07:02:37;;;;;;;16.35;5.75;;;17.90;99.90;;;;;;5112958;27;20205;-65
2021/07/05 07:05:06;;;;;;;22.83;6.20;;;18.00;99.90;;;;;;5114444;27;20255;-67
2021/07/05 07:07:34;;;;;;;21.65;6.22;;;18.00;99.90;;;;;;5116384;27;20324;-68
2021/07/05 07:10:01;;;;;;;21.95;6.47;;;18.10;99.90;;;;;;5113381;27;20648;-64
2021/07/05 07:12:28;;;;;;;21.35;7.30;;;18.10;99.90;;;;;;5115173;27;20698;-66
2021/07/05 07:14:54;;;;;;;17.13;5.80;;;18.20;99.90;;;;;;5114977;27;20231;-66
2021/07/05 07:17:25;;;;;;;21.00;6.05;;;18.30;99.90;;;;;;5114312;27;20562;-68
2021/07/05 07:19:52;;;;;;;19.27;5.25;;;18.30;99.90;;;;;;5114326;27;20210;-67
2021/07/05 07:22:19;;;;;;;17.98;5.45;;;18.30;99.90;;;;;;5114791;27;20207;-67
2021/07/05 07:24:48;;;;;;;19.63;5.72;;;18.40;99.90;;;;;;5116076;27;20221;-68
2021/07/05 07:27:15;;;;;;;19.13;5.45;;;18.40;99.90;;;;;;5114169;27;20649;-66
2021/07/05 07:29:42;;;;;;;19.05;5.72;;;18.40;99.90;;;;;;5115352;27;20224;-67
2021/07/05 07:32:09;;;;;;;18.88;5.57;;;18.50;99.90;;;;;;5114056;27;20573;-66
2021/07/05 07:34:36;;;;;;;16.80;5.25;;;18.50;99.90;;;;;;5118640;27;20200;-67
2021/07/05 07:37:05;;;;;;;19.73;5.70;;;18.50;99.90;;;;;;5115086;27;20205;-67
2021/07/05 07:39:36;;;;;;;18.40;5.63;;;18.50;99.90;;;;;;5095176;27;20300;-67
2021/07/05 07:42:05;;;;;;;21.73;5.30;;;18.50;99.90;;;;;;5114929;27;20211;-67
2021/07/05 07:44:33;;;;;;;19.40;5.45;;;18.50;99.90;;;;;;5115712;27;21275;-68
2021/07/05 07:47:00;;;;;;;24.25;5.25;;;18.50;99.90;;;;;;5113147;27;20237;-67
2021/07/05 07:49:30;;;;;;;17.67;4.97;;;18.50;99.90;;;;;;5114988;27;20628;-67
2021/07/05 07:51:57;;;;;;;19.05;4.93;;;18.50;99.90;;;;;;5114788;27;20235;-67
2021/07/05 07:54:24;;;;;;;15.30;4.93;;;18.50;99.90;;;;;;5115734;27;20240;-66
2021/07/05 07:56:50;;;;;;;29.60;5.00;;;18.50;99.90;;;;;;5113134;27;20205;-67
2021/07/05 07:59:19;;;;;;;20.75;5.60;;;18.60;99.90;;;;;;5113241;27;20284;-69
2021/07/05 08:01:45;;;;;;;18.55;4.95;;;18.60;99.90;;;;;;5117736;27;20201;-68
2021/07/05 08:04:13;;;;;;;17.20;5.18;;;18.60;99.90;;;;;;5113627;27;20257;-68
2021/07/05 08:06:39;;;;;;;20.73;5.53;;;18.60;99.90;;;;;;5113834;27;20287;-66
2021/07/05 08:09:07;;;;;;;24.30;5.50;;;18.60;99.90;;;;;;5115286;27;20301;-68
2021/07/05 08:11:35;;;;;;;18.63;5.53;;;18.60;99.90;;;;;;5115021;27;20200;-69
2021/07/05 08:14:04;;;;;;;23.77;5.30;;;18.60;99.90;;;;;;5091028;27;20216;-70
2021/07/05 08:16:32;;;;;;;13.15;5.05;;;18.60;99.90;;;;;;5114726;27;20263;-69
2021/07/05 08:18:59;;;;;;;25.55;6.07;;;18.60;99.90;;;;;;5109866;27;20296;-66
2021/07/05 08:21:27;;;;;;;30.10;5.93;;;18.70;99.90;;;;;;5114477;27;20652;-68
2021/07/05 08:23:54;;;;;;;25.95;5.88;;;18.70;99.90;;;;;;5090111;27;23142;-70
2021/07/05 08:26:21;;;;;;;22.67;6.25;;;18.70;99.90;;;;;;5112291;27;20216;-67
2021/07/05 08:28:48;;;;;;;17.00;5.43;;;18.80;99.90;;;;;;5115563;27;20212;-68
2021/07/05 08:31:15;;;;;;;18.35;5.20;;;18.90;99.90;;;;;;5112655;27;20306;-67
2021/07/05 08:33:46;;;;;;;18.48;4.88;;;18.90;99.90;;;;;;5114541;27;20204;-69
2021/07/05 08:36:13;;;;;;;19.27;5.60;;;18.90;99.60;;;;;;5094390;27;20212;-67
2021/07/05 08:38:40;;;;;;;21.67;5.72;;;18.90;99.40;;;;;;5114350;27;20257;-68
2021/07/05 08:41:07;;;;;;;21.05;5.60;;;18.90;99.10;;;;;;5113562;27;20378;-69
2021/07/05 08:43:34;;;;;;;16.60;5.50;;;19.00;99.00;;;;;;5114221;27;20281;-73
2021/07/05 08:46:02;;;;;;;21.88;5.47;;;19.00;98.90;;;;;;5113173;27;20208;-67
2021/07/05 08:48:32;;;;;;;18.42;5.30;;;19.10;98.80;;;;;;5114110;27;20231;-69
2021/07/05 08:51:02;;;;;;;26.35;5.47;;;19.10;98.70;;;;;;5114693;27;20296;-68
2021/07/05 08:53:29;;;;;;;21.48;5.55;;;19.10;98.60;;;;;;5114998;27;20265;-69
2021/07/05 08:55:55;;;;;;;23.83;5.82;;;19.20;98.40;;;;;;5111701;27;20303;-70
2021/07/05 08:58:23;;;;;;;21.67;5.35;;;19.20;98.10;;;;;;5113580;27;20462;-68
2021/07/05 09:00:50;;;;;;;16.83;5.47;;;19.20;97.90;;;;;;5118537;27;20204;-68
2021/07/05 09:03:23;;;;;;;18.55;5.32;;;19.20;97.90;;;;;;5113547;27;20240;-69
2021/07/05 09:06:10;;;;;;;17.15;5.82;;;19.20;97.90;;;;;;5113301;27;20204;-69
2021/07/05 09:08:39;;;;;;;20.05;5.50;;;19.20;98.00;;;;;;5112622;27;20220;-68
2021/07/05 09:11:08;;;;;;;20.85;6.13;;;19.30;98.00;;;;;;5114075;27;20295;-70
2021/07/05 09:13:44;;;;;;;14.88;5.60;;;19.30;98.00;;;;;;5090802;27;20203;-70
2021/07/05 09:16:11;;;;;;;21.20;6.00;;;19.40;97.90;;;;;;5113755;27;20208;-69
2021/07/05 09:18:43;;;;;;;13.82;5.55;;;19.50;97.80;;;;;;5111543;27;20698;-69
2021/07/05 09:21:14;;;;;;;14.25;5.30;;;19.50;97.50;;;;;;5117397;27;20201;-68
2021/07/05 09:23:46;;;;;;;13.55;5.00;;;19.50;97.20;;;;;;5112551;27;20247;-69
2021/07/05 09:26:19;;;;;;;15.10;5.05;;;19.60;97.00;;;;;;5113185;27;20236;-70
2021/07/05 09:28:46;;;;;;;19.17;5.47;;;19.60;96.70;;;;;;5113182;27;20211;-69
2021/07/05 09:31:13;;;;;;;23.95;5.10;;;19.60;96.50;;;;;;5113334;27;20676;-69
2021/07/05 09:33:46;;;;;;;21.17;6.93;;;19.60;96.40;;;;;;5112763;27;20200;-68
2021/07/05 09:36:22;;;;;;;15.55;4.88;;;19.60;96.00;;;;;;5114200;27;20211;-68
2021/07/05 09:38:50;;;;;;;16.40;4.63;;;19.70;95.80;;;;;;5112793;27;21175;-68
2021/07/05 09:41:20;;;;;;;26.73;5.22;;;19.60;95.70;;;;;;5110947;27;20196;-69
2021/07/05 09:43:53;;;;;;;17.80;5.20;;;19.60;95.60;;;;;;5112472;27;20349;-69
2021/07/05 09:46:35;;;;;;;19.02;5.05;;;19.60;95.60;;;;;;5127534;27;20252;-69
2021/07/05 09:49:10;;;;;;;15.48;4.60;;;19.60;95.70;;;;;;5094694;27;20573;-67
2021/07/05 09:51:40;;;;;;;18.10;5.03;;;19.60;95.80;;;;;;5113038;27;20245;-69
2021/07/05 09:54:08;;;;;;;18.55;4.97;;;19.60;95.80;;;;;;5111201;27;22209;-69
2021/07/05 09:56:35;;;;;;;18.92;4.85;;;19.60;95.90;;;;;;5112334;27;20231;-73
2021/07/05 09:59:15;;;;;;;20.90;5.13;;;19.60;96.10;;;;;;5113237;27;20217;-70
2021/07/05 10:01:44;;;;;;;19.05;4.50;;;19.60;96.00;;;;;;5111861;27;20204;-71
2021/07/05 10:04:14;;;;;;;18.98;4.82;;;19.60;96.00;;;;;;5110343;27;20672;-69
2021/07/05 10:06:45;;;;;;;16.35;4.60;;;19.60;96.00;;;;;;5113987;27;20679;-68
2021/07/05 10:09:14;;;;;;;19.13;4.57;;;19.70;95.90;;;;;;5112727;27;20382;-68
2021/07/05 10:11:41;;;;;;;16.20;4.50;;;19.70;95.90;;;;;;5111552;27;20209;-70
2021/07/05 10:14:17;;;;;;;14.88;4.43;;;19.70;95.70;;;;;;5094631;27;20224;-70
2021/07/05 10:16:45;;;;;;;20.42;4.03;;;19.70;95.60;;;;;;5111473;27;20204;-70
2021/07/05 10:19:15;;;;;;;16.20;3.90;;;19.70;95.60;;;;;;5110537;27;20296;-70
2021/07/05 10:21:44;;;;;;;11.75;3.85;;;19.80;95.60;;;;;;5112958;27;20196;-69
2021/07/05 10:24:11;;;;;;;15.65;4.55;;;19.80;95.70;;;;;;5113290;27;21792;-69
2021/07/05 10:26:39;;;;;;;16.65;3.70;;;19.90;95.80;;;;;;5112524;27;20204;-71
2021/07/05 10:29:08;;;;;;;8.35;3.45;;;20.00;95.50;;;;;;5111508;27;20205;-70
2021/07/05 10:31:36;;;;;;;18.48;4.13;;;20.00;95.20;;;;;;5116368;27;20709;-69
2021/07/05 10:34:04;;;;;;;13.15;3.70;;;20.00;95.10;;;;;;5113230;27;20196;-70
2021/07/05 10:36:36;;;;;;;10.32;3.45;;;20.00;95.10;;;;;;5112533;27;20242;-71
2021/07/05 10:39:06;;;;;;;8.57;3.50;;;20.10;94.90;;;;;;5112022;27;20272;-78
2021/07/05 10:41:35;;;;;;;9.75;3.25;;;20.10;94.60;;;;;;5112847;27;20200;-72
2021/07/05 10:44:05;;;;;;;11.70;3.13;;;20.10;94.40;;;;;;5112197;27;20205;-75
2021/07/05 10:46:41;;;;;;;11.07;2.90;;;20.10;94.10;;;;;;5112249;27;20284;-74
2021/07/05 10:49:09;;;;;;;10.45;3.10;;;20.20;93.90;;;;;;5113759;27;20664;-64
2021/07/05 10:51:43;;;;;;;9.45;3.22;;;20.20;93.70;;;;;;5112574;27;20196;-63
2021/07/05 10:54:12;;;;;;;12.70;2.90;;;20.30;93.60;;;;;;5111668;27;20212;-63
2021/07/05 10:56:43;;;;;;;10.95;3.03;;;20.40;93.50;;;;;;5110918;27;20208;-64
2021/07/05 10:59:36;;;;;;;12.35;2.70;;;20.50;93.20;;;;;;5111876;27;20203;-64
2021/07/05 11:02:31;;;;;;;10.95;3.00;;;20.60;92.70;;;;;;5111958;27;20619;-68
2021/07/05 11:04:58;;;;;;;8.23;2.97;;;20.70;92.20;;;;;;5110556;27;20240;-66
2021/07/05 11:07:42;;;;;;;8.57;3.15;;;20.80;91.90;;;;;;5094929;27;22893;-66
2021/07/05 11:10:18;;;;;;;11.80;3.33;;;20.80;91.30;;;;;;5110409;27;20240;-63
2021/07/05 11:12:57;;;;;;;11.25;3.70;;;20.80;91.00;;;;;;5112332;27;20212;-67
2021/07/05 11:24:12;;;;;;;10.63;3.78;;;20.60;91.10;;;;;;4760843;23;20228;-65
2021/07/05 11:26:42;;;;;;;9.75;2.90;;;20.60;90.90;;;;;;5021308;28;20278;-66
2021/07/05 11:29:22;;;;;;;10.70;2.97;;;20.60;90.80;;;;;;5010791;28;20215;-66
2021/07/05 11:31:51;;;;;;;11.68;2.72;;;20.60;90.70;;;;;;4990612;28;20198;-68
2021/07/05 11:34:27;;;;;;;11.30;2.70;;;20.50;90.60;;;;;;4987579;28;20209;-67
2021/07/05 11:37:30;;;;;;;14.40;2.20;;;20.50;90.30;;;;;;4985017;28;20231;-65
2021/07/05 11:39:56;;;;;;;7.28;2.28;;;20.60;90.10;;;;;;4980862;28;20244;-69
2021/07/05 11:42:59;;;;;;;10.45;2.88;;;20.60;90.20;;;;;;4984784;28;20209;-69
2021/07/05 11:45:40;;;;;;;10.65;2.92;;;20.60;90.00;;;;;;4984519;28;20623;-67
2021/07/05 11:48:08;;;;;;;9.50;2.88;;;20.60;90.10;;;;;;4985466;28;20213;-66
2021/07/05 11:50:39;;;;;;;14.23;3.22;;;20.60;90.20;;;;;;4986481;28;20225;-66
2021/07/05 11:53:06;;;;;;;16.25;3.20;;;20.60;90.40;;;;;;4987462;28;20224;-66
2021/07/05 11:55:36;;;;;;;8.15;3.17;;;20.70;90.40;;;;;;4986542;28;21021;-68
2021/07/05 11:58:06;;;;;;;10.15;3.75;;;20.70;90.20;;;;;;4984773;28;20286;-66
2021/07/05 12:00:35;;;;;;;10.68;3.60;;;20.70;90.10;;;;;;4985526;28;20252;-67
2021/07/05 12:03:03;;;;;;;11.27;3.28;;;20.70;90.10;;;;;;4985338;28;20302;-64
2021/07/05 12:05:31;;;;;;;9.75;3.00;;;20.70;90.20;;;;;;4983471;28;20217;-65
2021/07/05 12:08:03;;;;;;;11.45;3.25;;;20.80;90.20;;;;;;4986278;28;20339;-69
2021/07/05 12:10:31;;;;;;;7.22;3.10;;;20.80;90.00;;;;;;4985066;28;20257;-71
2021/07/05 12:13:14;;;;;;;11.30;3.03;;;20.80;90.00;;;;;;4983691;28;20890;-68
2021/07/05 12:15:42;;;;;;;11.10;3.53;;;20.80;90.00;;;;;;4989065;28;20247;-68
2021/07/05 12:18:13;;;;;;;12.15;3.28;;;20.90;89.90;;;;;;4986237;28;20732;-67
2021/07/05 12:20:40;;;;;;;7.70;2.90;;;21.00;90.00;;;;;;4984730;28;20632;-70
2021/07/05 12:23:09;;;;;;;8.57;3.10;;;21.10;89.90;;;;;;4985498;28;20327;-67
2021/07/05 12:25:36;;;;;;;10.65;3.20;;;21.20;89.60;;;;;;4968481;28;20548;-70
2021/07/05 12:28:12;;;;;;;9.07;2.92;;;21.30;89.10;;;;;;4983043;28;20201;-69
2021/07/05 12:30:45;;;;;;;7.75;2.90;;;21.40;88.60;;;;;;4968882;28;20224;-69
2021/07/05 12:33:12;;;;;;;9.52;3.67;;;21.50;88.60;;;;;;4986749;28;20216;-70
2021/07/05 12:35:42;;;;;;;9.50;3.72;;;21.60;88.20;;;;;;4984880;28;20204;-70
2021/07/05 12:38:14;;;;;;;12.07;3.85;;;21.60;88.00;;;;;;4984220;28;20210;-67
2021/07/05 12:40:42;;;;;;;8.10;3.65;;;21.70;88.10;;;;;;4984794;28;20285;-71
2021/07/05 12:43:11;;;;;;;9.18;3.25;;;21.80;88.50;;;;;;4968854;28;20387;-70
2021/07/05 12:45:42;;;;;;;6.75;3.17;;;22.00;88.20;;;;;;4967471;28;20213;-69
2021/07/05 12:48:14;;;;;;;8.57;3.22;;;22.20;87.60;;;;;;4983793;28;20324;-70
2021/07/05 12:50:47;;;;;;;10.30;4.13;;;22.20;87.00;;;;;;4985269;28;20573;-71
2021/07/05 12:53:22;;;;;;;9.63;4.78;;;22.30;86.70;;;;;;4984025;28;20221;-72
2021/07/05 12:55:58;;;;;;;8.57;5.20;;;22.40;85.90;;;;;;4983137;28;20208;-71